createdAt,value
2023-01-01T00:00:46.961Z,100003.19
2023-01-01T00:03:16.504Z,100007.97
2023-01-01T00:05:44.324Z,99996.25
2023-01-01T00:08:12.177Z,100008.00
2023-01-01T00:10:43.250Z,99993.56
2023-01-01T00:13:14.672Z,99972.88
2023-01-01T00:15:43.248Z,99957.59
2023-01-01T00:18:11.195Z,99984.66
2023-01-01T00:20:40.445Z,99923.56
2023-01-01T00:23:08.778Z,99986.53
2023-01-01T00:25:36.671Z,99999.84
2023-01-01T00:28:04.655Z,99953.97
2023-01-01T00:30:33.229Z,99986.47
2023-01-01T00:33:01.204Z,100013.75
2023-01-01T00:35:29.394Z,100001.41
2023-01-01T00:37:59.225Z,100001.13
2023-01-01T00:40:27.372Z,100017.44
2023-01-01T00:42:55.294Z,99969.13
2023-01-01T00:45:24.118Z,100009.38
2023-01-01T00:47:53.467Z,100004.06
2023-01-01T00:50:21.797Z,100006.22
2023-01-01T00:52:50.498Z,100005.16
2023-01-01T00:55:20.438Z,100000.59
2023-01-01T00:57:48.234Z,99998.22
2023-01-01T01:00:17.475Z,100010.25
2023-01-01T01:02:45.593Z,100002.13
2023-01-01T01:05:13.634Z,100001.34
2023-01-01T01:10:32.708Z,100005.38
2023-01-01T01:13:00.519Z,100005.09
2023-01-01T01:15:28.392Z,100029.63
2023-01-01T01:17:56.774Z,100020.00
2023-01-01T01:20:24.616Z,100008.78
2023-01-01T01:22:52.418Z,99980.03
2023-01-01T01:25:20.411Z,100028.53
2023-01-01T01:27:49.853Z,100009.25
2023-01-01T01:30:18.059Z,99956.44
2023-01-01T01:32:46.607Z,99979.75
2023-01-01T01:35:14.455Z,100040.91
2023-01-01T01:37:42.234Z,100012.03
2023-01-01T01:40:11.780Z,100023.78
2023-01-01T01:42:39.638Z,100008.44
2023-01-01T01:45:12.789Z,100034.47
2023-01-01T01:47:47.756Z,100049.16
2023-01-01T01:50:21.252Z,100017.75
2023-01-01T01:53:02.628Z,100037.31
2023-01-01T01:55:33.713Z,100061.13
2023-01-01T01:58:02.022Z,100043.16
2023-01-01T02:00:31.676Z,100028.94
2023-01-01T02:03:05.942Z,100056.84
2023-01-01T02:05:35.256Z,100084.06
2023-01-01T02:08:05.222Z,100074.50
2023-01-01T02:10:34.159Z,100055.44
2023-01-01T02:13:02.297Z,100059.00
2023-01-01T02:15:36.587Z,100071.19
2023-01-01T02:18:11.650Z,100055.56
2023-01-01T02:20:46.800Z,100061.03
2023-01-01T02:23:29.275Z,100081.94
2023-01-01T02:26:12.888Z,100051.88
2023-01-01T02:28:52.129Z,100082.19
2023-01-01T02:31:26.066Z,100070.84
2023-01-01T02:33:57.909Z,100087.22
2023-01-01T02:36:28.447Z,100094.94
2023-01-01T02:38:59.243Z,100097.28
2023-01-01T02:41:32.183Z,100088.13
2023-01-01T02:46:33.315Z,100088.66
2023-01-01T02:49:07.928Z,100096.09
2023-01-01T02:51:51.281Z,100098.44
2023-01-01T02:54:26.939Z,100055.19
2023-01-01T02:57:02.602Z,100074.09
2023-01-01T02:59:59.619Z,100068.03
2023-01-01T03:02:38.218Z,100086.81
2023-01-01T03:05:12.141Z,100111.31
2023-01-01T03:07:47.231Z,100088.00
2023-01-01T03:10:20.228Z,100113.59
2023-01-01T03:12:57.492Z,100074.81
2023-01-01T03:15:32.432Z,100116.09
2023-01-01T03:18:06.833Z,100121.66
2023-01-01T03:20:39.625Z,100105.97
2023-01-01T03:23:11.267Z,100138.81
2023-01-01T03:25:43.775Z,100145.69
2023-01-01T03:28:14.722Z,100115.00
2023-01-01T03:30:46.659Z,100132.53
2023-01-01T03:33:20.365Z,100121.00
2023-01-01T03:35:51.709Z,100122.06
2023-01-01T03:38:24.681Z,100108.53
2023-01-01T03:40:57.899Z,100134.34
2023-01-01T03:43:36.733Z,100123.13
2023-01-01T03:46:11.009Z,100135.28
2023-01-01T03:48:58.544Z,100129.25
2023-01-01T03:51:49.160Z,100105.56
2023-01-01T03:54:30.323Z,100079.25
2023-01-01T03:57:03.801Z,100119.69
2023-01-01T03:59:37.873Z,100133.56
2023-01-01T04:02:12.583Z,100149.00
2023-01-01T04:04:41.074Z,100108.91
2023-01-01T04:07:15.043Z,100138.91
2023-01-01T04:09:50.370Z,100124.50
2023-01-01T04:12:19.892Z,100119.09
2023-01-01T04:14:47.677Z,100112.44
2023-01-01T04:17:17.377Z,100122.06
2023-01-01T04:19:50.063Z,100105.44
2023-01-01T04:22:24.463Z,100113.75
2023-01-01T04:24:52.262Z,100132.19
2023-01-01T04:27:20.253Z,100152.53
2023-01-01T04:29:48.453Z,100176.03
2023-01-01T04:32:18.006Z,100155.41
2023-01-01T04:34:45.940Z,100159.09
2023-01-01T04:37:14.283Z,100180.50
2023-01-01T04:39:43.798Z,100153.88
2023-01-01T04:42:11.690Z,100194.66
2023-01-01T04:44:39.800Z,100183.84
2023-01-01T04:47:08.112Z,100188.22
2023-01-01T04:49:37.684Z,100153.47
2023-01-01T04:52:06.084Z,100172.69
2023-01-01T04:54:33.990Z,100144.66
2023-01-01T04:57:02.036Z,100199.50
2023-01-01T04:59:30.888Z,100197.09
2023-01-01T05:02:00.673Z,100193.84
2023-01-01T05:04:28.764Z,100180.28
2023-01-01T05:06:58.076Z,100204.03
2023-01-01T05:09:26.043Z,100228.69
2023-01-01T05:11:55.820Z,100187.72
2023-01-01T05:14:23.770Z,100210.81
2023-01-01T05:16:51.858Z,100200.06
2023-01-01T05:19:20.072Z,100190.88
2023-01-01T05:21:47.978Z,100219.88
2023-01-01T05:24:17.122Z,100211.50
2023-01-01T05:26:46.312Z,100198.97
2023-01-01T05:29:16.954Z,100218.50
2023-01-01T05:31:46.124Z,100233.06
2023-01-01T05:34:14.579Z,100234.75
2023-01-01T05:36:42.399Z,100236.78
2023-01-01T05:39:13.155Z,100240.59
2023-01-01T05:41:43.424Z,100247.06
2023-01-01T05:44:11.878Z,100241.06
2023-01-01T05:46:40.267Z,100242.53
2023-01-01T05:49:11.374Z,100239.63
2023-01-01T05:54:06.784Z,100235.06
2023-01-01T05:56:34.690Z,100241.56
2023-01-01T05:59:04.606Z,100238.47
2023-01-01T06:01:33.777Z,100255.94
2023-01-01T06:04:02.001Z,100255.69
2023-01-01T06:06:33.507Z,100258.03
2023-01-01T06:09:03.215Z,100238.19
2023-01-01T06:11:32.179Z,100278.59
2023-01-01T06:14:02.151Z,100268.50
2023-01-01T06:16:32.983Z,100299.84
2023-01-01T06:19:01.238Z,100298.50
2023-01-01T06:21:30.586Z,100308.84
2023-01-01T06:24:00.657Z,100300.28
2023-01-01T06:26:31.400Z,100311.25
2023-01-01T06:28:59.981Z,100287.50
2023-01-01T06:31:31.199Z,100316.13
2023-01-01T06:34:03.759Z,100328.91
2023-01-01T06:36:31.957Z,100316.38
2023-01-01T06:39:00.361Z,100312.91
2023-01-01T06:41:30.813Z,100305.75
2023-01-01T06:43:59.935Z,100308.84
2023-01-01T06:46:29.829Z,100324.53
2023-01-01T06:48:59.528Z,100329.56
2023-01-01T06:51:30.812Z,100326.28
2023-01-01T06:54:00.423Z,100331.47
2023-01-01T06:56:28.648Z,100353.16
2023-01-01T06:58:56.470Z,100344.88
2023-01-01T07:01:27.073Z,100356.06
2023-01-01T07:03:57.157Z,100340.34
2023-01-01T07:06:26.086Z,100369.31
2023-01-01T07:08:55.926Z,100370.44
2023-01-01T07:11:27.205Z,100366.94
2023-01-01T07:13:55.092Z,100367.53
2023-01-01T07:16:24.354Z,100356.69
2023-01-01T07:18:52.907Z,100351.19
2023-01-01T07:21:30.061Z,100365.41
2023-01-01T07:24:00.580Z,100391.47
2023-01-01T07:26:30.716Z,100393.53
2023-01-01T07:29:06.413Z,100404.22
2023-01-01T07:31:35.912Z,100385.59
2023-01-01T07:34:03.781Z,100368.94
2023-01-01T07:36:31.501Z,100348.75
2023-01-01T07:39:01.275Z,100361.63
2023-01-01T07:41:29.110Z,100392.63
2023-01-01T07:43:56.915Z,100341.28
2023-01-01T07:46:24.997Z,100407.03
2023-01-01T07:48:52.783Z,100409.38
2023-01-01T07:51:20.481Z,100387.25
2023-01-01T07:53:48.540Z,100432.94
2023-01-01T07:56:17.809Z,100428.59
2023-01-01T07:58:45.564Z,100424.94
2023-01-01T08:01:14.636Z,100424.47
2023-01-01T08:03:43.120Z,100428.03
2023-01-01T08:06:12.405Z,100442.78
2023-01-01T08:08:40.761Z,100413.13
2023-01-01T08:11:08.860Z,100445.00
2023-01-01T08:13:38.213Z,100411.06
2023-01-01T08:16:07.167Z,100457.50
2023-01-01T08:18:35.157Z,100476.19
2023-01-01T08:21:04.364Z,100462.75
2023-01-01T08:23:32.620Z,100467.47
2023-01-01T08:26:01.993Z,100450.78
2023-01-01T08:28:30.792Z,100463.66
2023-01-01T08:31:00.683Z,100463.41
2023-01-01T08:33:28.691Z,100474.22
2023-01-01T08:35:56.649Z,100498.41
2023-01-01T08:38:24.791Z,100497.16
2023-01-01T08:40:52.787Z,100489.50
2023-01-01T08:43:20.681Z,100502.38
2023-01-01T08:45:48.698Z,100460.13
2023-01-01T08:48:17.927Z,100495.88
2023-01-01T08:50:45.764Z,100497.75
2023-01-01T08:53:14.049Z,100502.72
2023-01-01T08:55:41.900Z,100513.38
2023-01-01T08:58:09.663Z,100467.06
2023-01-01T09:00:37.661Z,100480.88
2023-01-01T09:03:05.576Z,100497.41
2023-01-01T09:05:34.835Z,100518.94
2023-01-01T09:08:04.156Z,100526.38
2023-01-01T09:10:31.922Z,100485.34
2023-01-01T09:12:59.736Z,100503.78
2023-01-01T09:15:27.580Z,100531.13
2023-01-01T09:17:55.354Z,100496.34
2023-01-01T09:20:23.329Z,100502.63
2023-01-01T09:22:52.674Z,100516.06
2023-01-01T09:25:20.888Z,100533.91
2023-01-01T09:27:48.676Z,100543.50
2023-01-01T09:30:16.730Z,100557.44
2023-01-01T09:32:44.380Z,100526.94
2023-01-01T09:35:12.441Z,100553.94
2023-01-01T09:37:40.408Z,100555.59
2023-01-01T09:40:24.827Z,100549.53
2023-01-01T09:43:01.639Z,100557.53
2023-01-01T09:45:32.572Z,100558.13
2023-01-01T09:48:04.770Z,100545.63
2023-01-01T09:50:36.419Z,100560.66
2023-01-01T09:53:08.163Z,100550.59
2023-01-01T09:55:47.233Z,100557.88
2023-01-01T09:58:15.426Z,100548.75
2023-01-01T10:00:45.598Z,100554.97
2023-01-01T10:03:30.802Z,100562.03
2023-01-01T10:06:04.066Z,100565.28
2023-01-01T10:08:43.907Z,100564.81
2023-01-01T10:11:24.187Z,100553.09
2023-01-01T10:13:55.241Z,100554.47
2023-01-01T10:16:34.618Z,100565.47
2023-01-01T10:19:15.688Z,100560.13
2023-01-01T10:21:47.572Z,100558.53
2023-01-01T10:24:37.707Z,100555.53
2023-01-01T10:27:08.081Z,100562.34
2023-01-01T10:29:42.166Z,100536.41
2023-01-01T10:32:19.887Z,100566.31
2023-01-01T10:34:48.651Z,100545.09
2023-01-01T10:37:17.271Z,100556.75
2023-01-01T10:39:47.431Z,100559.22
2023-01-01T10:42:18.485Z,100553.31
2023-01-01T10:44:46.436Z,100590.66
2023-01-01T10:47:27.101Z,100581.16
2023-01-01T10:49:57.456Z,100588.47
2023-01-01T10:52:29.172Z,100591.69
2023-01-01T10:54:57.021Z,100590.09
2023-01-01T10:57:34.646Z,100600.75
2023-01-01T11:00:23.486Z,100589.59
2023-01-01T11:03:14.352Z,100604.00
2023-01-01T11:06:04.153Z,100578.25
2023-01-01T11:08:34.730Z,100603.03
2023-01-01T11:11:04.264Z,100588.06
2023-01-01T11:13:35.832Z,100590.84
2023-01-01T11:16:03.791Z,100580.41
2023-01-01T11:18:37.148Z,100555.84
2023-01-01T11:21:07.161Z,100566.81
2023-01-01T11:23:37.459Z,100551.63
2023-01-01T11:26:08.135Z,100566.56
2023-01-01T11:28:38.179Z,100557.25
2023-01-01T11:31:16.015Z,100549.56
2023-01-01T11:33:51.149Z,100546.19
2023-01-01T11:36:23.774Z,100548.94
2023-01-01T11:39:06.848Z,100555.09
2023-01-01T11:41:44.264Z,100564.72
2023-01-01T11:44:23.511Z,100561.59
2023-01-01T11:46:51.524Z,100564.97
2023-01-01T11:49:25.425Z,100565.31
2023-01-01T11:51:53.577Z,100535.78
2023-01-01T11:54:33.569Z,100579.72
2023-01-01T11:57:07.677Z,100578.06
2023-01-01T11:59:44.746Z,100568.47
2023-01-01T12:02:16.209Z,100566.84
2023-01-01T12:04:52.181Z,100571.72
2023-01-01T12:07:24.986Z,100572.66
2023-01-01T12:09:59.331Z,100575.09
2023-01-01T12:12:31.886Z,100567.31
2023-01-01T12:15:06.456Z,100547.06
2023-01-01T12:17:39.616Z,100553.31
2023-01-01T12:20:14.438Z,100515.19
2023-01-01T12:22:42.957Z,100531.94
2023-01-01T12:25:14.746Z,100538.09
2023-01-01T12:27:59.164Z,100541.31
2023-01-01T12:30:35.572Z,100547.25
2023-01-01T12:33:28.776Z,100517.16
2023-01-01T12:36:10.892Z,100548.94
2023-01-01T12:39:26.874Z,100510.22
2023-01-01T12:42:03.359Z,100530.16
2023-01-01T12:44:36.535Z,100525.75
2023-01-01T12:47:13.563Z,100534.00
2023-01-01T12:49:54.519Z,100538.88
2023-01-01T12:52:36.644Z,100546.28
2023-01-01T12:55:31.969Z,100524.63
2023-01-01T12:58:09.714Z,100523.31
2023-01-01T13:00:39.784Z,100508.59
2023-01-01T13:03:18.568Z,100509.72
2023-01-01T13:05:49.370Z,100508.00
2023-01-01T13:08:17.259Z,100503.28
2023-01-01T13:10:47.944Z,100511.28
2023-01-01T13:13:16.146Z,100474.75
2023-01-01T13:15:50.227Z,100499.88
2023-01-01T13:18:30.753Z,100489.84
2023-01-01T13:21:02.866Z,100483.91
2023-01-01T13:23:44.633Z,100493.97
2023-01-01T13:26:49.663Z,100492.81
2023-01-01T13:29:45.110Z,100498.97
2023-01-01T13:32:14.665Z,100497.59
2023-01-01T13:35:19.701Z,100492.25
2023-01-01T13:37:48.523Z,100504.53
2023-01-01T13:40:53.054Z,100503.72
2023-01-01T13:43:29.370Z,100512.31
2023-01-01T13:46:11.773Z,100519.75
2023-01-01T13:49:13.543Z,100512.78
2023-01-01T13:52:06.826Z,100508.50
2023-01-01T13:55:02.300Z,100514.06
2023-01-01T13:57:49.345Z,100516.41
2023-01-01T14:00:23.228Z,100510.50
2023-01-01T14:02:58.886Z,100517.44
2023-01-01T14:05:32.900Z,100517.13
2023-01-01T14:08:02.071Z,100493.03
2023-01-01T14:10:31.126Z,100501.59
2023-01-01T14:13:16.568Z,100502.38
2023-01-01T14:15:54.120Z,100505.06
2023-01-01T14:18:26.745Z,100505.66
2023-01-01T14:20:55.200Z,100497.88
2023-01-01T14:23:33.090Z,100486.38
2023-01-01T14:26:03.494Z,100480.38
2023-01-01T14:28:33.762Z,100493.94
2023-01-01T14:31:10.677Z,100484.31
2023-01-01T14:33:40.386Z,100503.69
2023-01-01T14:36:17.653Z,100501.13
2023-01-01T14:38:49.225Z,100496.84
2023-01-01T14:41:22.425Z,100482.00
2023-01-01T14:43:53.495Z,100500.22
2023-01-01T14:46:23.417Z,100504.16
2023-01-01T14:48:54.539Z,100509.84
2023-01-01T14:51:25.067Z,100501.59
2023-01-01T14:53:58.086Z,100477.84
2023-01-01T14:56:27.869Z,100496.75
2023-01-01T14:59:03.295Z,100496.50
2023-01-01T15:01:30.870Z,100492.22
2023-01-01T15:04:00.803Z,100496.25
2023-01-01T15:06:29.492Z,100494.19
2023-01-01T15:08:59.075Z,100500.13
2023-01-01T15:11:29.302Z,100493.13
2023-01-01T15:14:00.171Z,100495.72
2023-01-01T15:16:31.089Z,100498.97
2023-01-01T15:19:19.529Z,100499.78
2023-01-01T15:21:47.659Z,100491.66
2023-01-01T15:24:22.306Z,100461.00
2023-01-01T15:26:51.928Z,100498.06
2023-01-01T15:29:28.442Z,100480.00
2023-01-01T15:31:59.036Z,100478.69
2023-01-01T15:34:30.636Z,100488.00
2023-01-01T15:37:09.009Z,100463.41
2023-01-01T15:39:48.610Z,100454.97
2023-01-01T15:42:24.815Z,100477.91
2023-01-01T15:44:52.818Z,100460.69
2023-01-01T15:47:26.534Z,100482.88
2023-01-01T15:50:09.149Z,100461.81
2023-01-01T15:52:38.085Z,100474.31
2023-01-01T15:55:08.779Z,100455.44
2023-01-01T15:57:36.642Z,100462.00
2023-01-01T16:00:05.407Z,100465.50
2023-01-01T16:02:37.263Z,100471.41
2023-01-01T16:05:14.705Z,100468.75
2023-01-01T16:07:43.623Z,100442.81
2023-01-01T16:10:17.813Z,100455.88
2023-01-01T16:12:46.363Z,100444.44
2023-01-01T16:15:16.613Z,100395.25
2023-01-01T16:17:45.786Z,100454.84
2023-01-01T16:20:16.781Z,100446.00
2023-01-01T16:22:45.206Z,100434.13
2023-01-01T16:25:22.755Z,100424.72
2023-01-01T16:27:50.642Z,100432.38
2023-01-01T16:30:18.634Z,100383.66
2023-01-01T16:35:37.778Z,100436.53
2023-01-01T16:38:05.612Z,100420.00
2023-01-01T16:40:37.996Z,100409.13
2023-01-01T16:43:09.797Z,100415.63
2023-01-01T16:45:37.838Z,100414.94
2023-01-01T16:48:05.935Z,100443.28
2023-01-01T16:50:34.245Z,100435.88
2023-01-01T16:53:02.045Z,100404.38
2023-01-01T16:55:29.874Z,100439.34
2023-01-01T16:58:38.191Z,100428.47
2023-01-01T17:00:48.692Z,100431.59
2023-01-01T17:03:17.631Z,100429.38
2023-01-01T17:05:45.587Z,100417.50
2023-01-01T17:08:13.340Z,100428.84
2023-01-01T17:10:41.727Z,100409.41
2023-01-01T17:13:11.087Z,100412.16
2023-01-01T17:15:39.008Z,100402.53
2023-01-01T17:18:08.225Z,100403.34
2023-01-01T17:20:36.218Z,100404.97
2023-01-01T17:23:04.183Z,100379.97
2023-01-01T17:25:32.505Z,100402.31
2023-01-01T17:28:00.344Z,100355.09
2023-01-01T17:30:29.640Z,100356.25
2023-01-01T17:32:57.990Z,100376.03
2023-01-01T17:35:31.406Z,100362.25
2023-01-01T17:38:01.464Z,100348.25
2023-01-01T17:40:33.540Z,100379.84
2023-01-01T17:43:04.869Z,100373.72
2023-01-01T17:45:37.367Z,100346.06
2023-01-01T17:48:06.020Z,100356.31
2023-01-01T17:50:33.950Z,100317.34
2023-01-01T17:53:01.695Z,100311.72
2023-01-01T17:55:31.172Z,100313.53
2023-01-01T17:57:58.937Z,100345.81
2023-01-01T18:00:26.843Z,100333.09
2023-01-01T18:02:57.142Z,100321.41
2023-01-01T18:05:25.061Z,100334.94
2023-01-01T18:07:53.100Z,100323.03
2023-01-01T18:10:21.580Z,100306.84
2023-01-01T18:12:49.329Z,100322.69
2023-01-01T18:15:17.041Z,100325.13
2023-01-01T18:17:45.423Z,100322.69
2023-01-01T18:20:14.930Z,100305.47
2023-01-01T18:22:43.387Z,100295.63
2023-01-01T18:25:12.036Z,100312.84
2023-01-01T18:27:40.071Z,100300.25
2023-01-01T18:30:08.975Z,100303.94
2023-01-01T18:32:37.446Z,100301.50
2023-01-01T18:35:06.514Z,100305.22
2023-01-01T18:37:37.787Z,100306.28
2023-01-01T18:40:12.278Z,100274.44
2023-01-01T18:42:45.695Z,100297.13
2023-01-01T18:45:19.315Z,100256.13
2023-01-01T18:47:47.992Z,100293.66
2023-01-01T18:50:24.002Z,100289.38
2023-01-01T18:52:57.630Z,100254.41
2023-01-01T18:55:28.021Z,100240.97
2023-01-01T18:58:01.044Z,100258.34
2023-01-01T19:00:31.488Z,100238.09
2023-01-01T19:03:02.283Z,100227.09
2023-01-01T19:05:32.212Z,100249.34
2023-01-01T19:08:13.389Z,100231.38
2023-01-01T19:10:44.447Z,100236.84
2023-01-01T19:13:23.120Z,100227.56
2023-01-01T19:15:53.403Z,100206.16
2023-01-01T19:18:24.261Z,100202.78
2023-01-01T19:20:59.557Z,100130.09
2023-01-01T19:23:29.580Z,100146.94
2023-01-01T19:26:03.031Z,100183.72
2023-01-01T19:28:36.742Z,100174.34
2023-01-01T19:31:06.212Z,100155.81
2023-01-01T19:33:34.162Z,100146.81
2023-01-01T19:36:02.630Z,100152.34
2023-01-01T19:38:31.934Z,100160.75
2023-01-01T19:40:59.652Z,100171.41
2023-01-01T19:43:27.936Z,100177.56
2023-01-01T19:45:56.007Z,100184.16
2023-01-01T19:48:23.984Z,100170.28
2023-01-01T19:50:52.823Z,100146.56
2023-01-01T19:53:20.678Z,100122.41
2023-01-01T19:55:50.227Z,100158.84
2023-01-01T19:58:20.388Z,100157.88
2023-01-01T20:00:48.358Z,100164.63
2023-01-01T20:03:52.333Z,100168.31
2023-01-01T20:06:05.006Z,100172.81
2023-01-01T20:08:33.387Z,100138.03
2023-01-01T20:11:02.802Z,100131.25
2023-01-01T20:13:31.265Z,100173.19
2023-01-01T20:15:59.289Z,100160.63
2023-01-01T20:18:27.033Z,100129.63
2023-01-01T20:21:12.931Z,100154.00
2023-01-01T20:23:42.361Z,100153.69
2023-01-01T20:26:11.534Z,100174.22
2023-01-01T20:28:57.388Z,100173.88
2023-01-01T20:31:25.231Z,100165.19
2023-01-01T20:33:53.231Z,100163.59
2023-01-01T20:36:39.115Z,100159.63
2023-01-01T20:39:06.786Z,100163.44
2023-01-01T20:41:36.012Z,100139.75
2023-01-01T20:44:03.837Z,100152.25
2023-01-01T20:46:31.901Z,100106.59
2023-01-01T20:48:59.921Z,100155.72
2023-01-01T20:51:28.820Z,100102.78
2023-01-01T20:53:57.037Z,100146.09
2023-01-01T20:56:24.952Z,100149.88
2023-01-01T20:59:00.099Z,100152.34
2023-01-01T21:01:29.902Z,100138.81
2023-01-01T21:03:58.345Z,100130.13
2023-01-01T21:06:26.314Z,100117.28
2023-01-01T21:08:54.056Z,100130.38
2023-01-01T21:11:22.976Z,100109.97
2023-01-01T21:13:51.096Z,100107.88
2023-01-01T21:16:23.572Z,100100.75
2023-01-01T21:18:51.985Z,100100.97
2023-01-01T21:21:23.907Z,100116.09
2023-01-01T21:23:53.674Z,100099.44
2023-01-01T21:26:26.790Z,100070.81
2023-01-01T21:28:54.974Z,100108.66
2023-01-01T21:31:24.418Z,100098.59
2023-01-01T21:33:53.214Z,100098.03
2023-01-01T21:36:23.806Z,100080.47
2023-01-01T21:38:53.158Z,100089.38
2023-01-01T21:41:24.060Z,100099.06
2023-01-01T21:43:55.933Z,100068.94
2023-01-01T21:46:33.739Z,100108.19
2023-01-01T21:49:05.224Z,100102.88
2023-01-01T21:51:34.420Z,100103.34
2023-01-01T21:54:16.385Z,100106.00
2023-01-01T21:56:47.251Z,100090.09
2023-01-01T21:59:29.889Z,100115.03
2023-01-01T22:02:31.143Z,100105.91
2023-01-01T22:05:02.378Z,100108.81
2023-01-01T22:10:24.551Z,100104.63
2023-01-01T22:12:58.284Z,100106.41
2023-01-01T22:15:41.275Z,100102.78
2023-01-01T22:18:23.270Z,100080.50
2023-01-01T22:20:52.344Z,100093.34
2023-01-01T22:23:39.470Z,100105.91
2023-01-01T22:26:17.277Z,100055.91
2023-01-01T22:28:46.294Z,100081.31
2023-01-01T22:31:20.208Z,100109.63
2023-01-01T22:33:52.554Z,100106.97
2023-01-01T22:36:24.269Z,100067.09
2023-01-01T22:38:54.433Z,100111.91
2023-01-01T22:41:22.345Z,100108.53
2023-01-01T22:43:50.671Z,100099.72
2023-01-01T22:46:24.221Z,100097.41
2023-01-01T22:48:57.976Z,100087.53
2023-01-01T22:51:29.479Z,100092.97
2023-01-01T22:53:57.800Z,100095.16
2023-01-01T22:56:25.862Z,100067.31
2023-01-01T22:58:57.192Z,100050.09
2023-01-01T23:01:26.267Z,100068.53
2023-01-01T23:03:55.640Z,100053.44
2023-01-01T23:06:23.858Z,100039.78
2023-01-01T23:08:53.776Z,100060.63
2023-01-01T23:11:22.044Z,100045.03
2023-01-01T23:14:09.676Z,100068.78
2023-01-01T23:16:38.195Z,100066.44
2023-01-01T23:19:07.668Z,100071.28
2023-01-01T23:21:37.790Z,100067.56
2023-01-01T23:24:09.847Z,100055.88
2023-01-01T23:26:39.108Z,100074.81
2023-01-01T23:29:08.548Z,100041.88
2023-01-01T23:31:36.937Z,100059.16
2023-01-01T23:34:05.863Z,100059.72
2023-01-01T23:36:35.717Z,100055.16
2023-01-01T23:39:03.610Z,100048.34
2023-01-01T23:41:32.607Z,100014.13
2023-01-01T23:44:00.427Z,100062.78
2023-01-01T23:46:28.396Z,100052.13
2023-01-01T23:48:57.231Z,100022.44
2023-01-01T23:51:25.131Z,100033.31
2023-01-01T23:53:54.501Z,100062.06
2023-01-01T23:56:23.542Z,100053.81
2023-01-01T23:58:51.359Z,100049.63
